createdAt,value
2018-07-17T00:02:27.459Z,16.60
2018-07-17T00:04:56.837Z,16.60
2018-07-17T00:07:25.313Z,16.60
2018-07-17T00:09:53.797Z,16.50
2018-07-17T00:12:22.287Z,16.50
2018-07-17T00:14:50.723Z,16.40
2018-07-17T00:17:19.164Z,16.30
2018-07-17T00:19:47.617Z,16.20
2018-07-17T00:22:16.033Z,16.10
2018-07-17T00:24:44.712Z,16.10
2018-07-17T00:27:13.194Z,16.00
2018-07-17T00:29:41.878Z,16.00
2018-07-17T00:32:10.336Z,15.90
2018-07-17T00:34:38.859Z,15.90
2018-07-17T00:37:07.331Z,15.80
2018-07-17T00:39:35.805Z,15.80
2018-07-17T00:42:04.341Z,15.70
2018-07-17T00:44:32.802Z,15.60
2018-07-17T00:47:01.260Z,15.60
2018-07-17T00:49:29.813Z,15.50
2018-07-17T00:51:58.329Z,15.50
2018-07-17T00:54:27.001Z,15.50
2018-07-17T00:56:55.510Z,15.40
2018-07-17T00:59:23.996Z,15.40
2018-07-17T01:01:57.709Z,15.40
2018-07-17T01:04:31.442Z,15.30
2018-07-17T01:07:06.028Z,15.30
2018-07-17T01:09:39.804Z,15.30
2018-07-17T01:12:12.427Z,15.20
2018-07-17T01:15:12.338Z,15.20
2018-07-17T01:17:40.984Z,15.20
2018-07-17T01:20:09.471Z,15.20
2018-07-17T01:22:37.968Z,15.20
2018-07-17T01:25:06.448Z,15.20
2018-07-17T01:27:34.909Z,15.10
2018-07-17T01:30:03.355Z,15.10
2018-07-17T01:32:31.849Z,15.10
2018-07-17T01:35:00.347Z,15.10
2018-07-17T01:37:28.917Z,15.10
2018-07-17T01:39:57.464Z,15.10
2018-07-17T01:42:25.976Z,15.00
2018-07-17T01:44:54.450Z,15.00
2018-07-17T01:47:22.946Z,14.90
2018-07-17T01:49:51.383Z,14.90
2018-07-17T01:52:19.899Z,14.90
2018-07-17T01:54:48.320Z,14.80
2018-07-17T01:57:16.785Z,14.80
2018-07-17T01:59:45.208Z,14.80
2018-07-17T02:02:13.750Z,14.70
2018-07-17T02:04:42.192Z,14.70
2018-07-17T02:07:10.689Z,14.70
2018-07-17T02:09:39.194Z,14.70
2018-07-17T02:12:07.800Z,14.80
2018-07-17T02:14:36.540Z,14.70
2018-07-17T02:17:05.141Z,14.70
2018-07-17T02:19:33.765Z,14.70
2018-07-17T02:22:02.332Z,14.70
2018-07-17T02:24:30.914Z,14.70
2018-07-17T02:26:59.389Z,14.70
2018-07-17T02:29:28.698Z,14.70
2018-07-17T02:31:57.147Z,14.70
2018-07-17T02:34:25.617Z,14.70
2018-07-17T02:36:54.031Z,14.60
2018-07-17T02:39:22.475Z,14.50
2018-07-17T02:41:50.914Z,14.50
2018-07-17T02:44:19.349Z,14.40
2018-07-17T02:46:47.748Z,14.40
2018-07-17T02:49:16.185Z,14.30
2018-07-17T02:51:44.574Z,14.30
2018-07-17T02:54:13.015Z,14.30
2018-07-17T02:56:42.317Z,14.20
2018-07-17T02:59:10.847Z,14.20
2018-07-17T03:01:39.314Z,14.20
2018-07-17T03:04:07.881Z,14.20
2018-07-17T03:06:36.481Z,14.20
2018-07-17T03:09:05.973Z,14.20
2018-07-17T03:11:34.419Z,14.20
2018-07-17T03:16:31.138Z,14.10
2018-07-17T03:18:59.555Z,14.10
2018-07-17T03:21:28.104Z,14.10
2018-07-17T03:23:56.541Z,14.10
2018-07-17T03:26:24.977Z,14.10
2018-07-17T03:28:53.389Z,14.10
2018-07-17T03:31:21.879Z,14.10
2018-07-17T03:33:50.357Z,14.10
2018-07-17T03:36:18.877Z,14.10
2018-07-17T03:38:47.255Z,14.10
2018-07-17T03:41:15.768Z,14.10
2018-07-17T03:46:12.467Z,14.10
2018-07-17T03:48:40.952Z,14.10
2018-07-17T03:51:09.442Z,14.10
2018-07-17T03:53:37.898Z,14.10
2018-07-17T03:56:06.305Z,14.10
2018-07-17T03:58:34.775Z,14.10
2018-07-17T04:01:03.194Z,14.10
2018-07-17T04:03:31.600Z,14.10
2018-07-17T04:06:00.362Z,14.10
2018-07-17T04:08:28.884Z,14.20
2018-07-17T04:10:57.491Z,14.20
2018-07-17T04:13:25.943Z,14.30
2018-07-17T04:15:54.361Z,14.40
2018-07-17T04:18:22.839Z,14.50
2018-07-17T04:20:51.330Z,14.60
2018-07-17T04:23:19.827Z,14.70
2018-07-17T04:28:16.584Z,14.80
2018-07-17T04:30:45.076Z,14.90
2018-07-17T04:33:13.513Z,14.80
2018-07-17T04:35:42.032Z,14.90
2018-07-17T04:38:10.552Z,15.00
2018-07-17T04:40:45.582Z,15.10
2018-07-17T04:43:14.052Z,15.00
2018-07-17T04:45:42.457Z,14.90
2018-07-17T04:48:10.915Z,14.90
2018-07-17T04:50:39.343Z,14.80
2018-07-17T04:53:07.822Z,14.90
2018-07-17T04:55:36.295Z,14.90
2018-07-17T04:58:04.720Z,14.90
2018-07-17T05:00:33.178Z,14.90
2018-07-17T05:03:01.644Z,15.00
2018-07-17T05:05:30.162Z,15.00
2018-07-17T05:07:58.671Z,15.00
2018-07-17T05:10:27.119Z,15.00
2018-07-17T05:12:55.704Z,14.90
2018-07-17T05:15:24.185Z,15.00
2018-07-17T05:17:52.614Z,15.00
2018-07-17T05:20:21.199Z,15.00
2018-07-17T05:22:49.775Z,15.00
2018-07-17T05:25:18.206Z,15.10
2018-07-17T05:27:46.744Z,15.10
2018-07-17T05:30:15.247Z,15.20
2018-07-17T05:32:43.746Z,15.30
2018-07-17T05:35:12.291Z,15.40
2018-07-17T05:37:40.638Z,15.50
2018-07-17T05:40:09.013Z,15.50
2018-07-17T05:42:37.467Z,15.60
2018-07-17T05:45:06.017Z,15.70
2018-07-17T05:47:38.818Z,15.70
2018-07-17T05:50:07.674Z,15.80
2018-07-17T05:52:36.162Z,15.80
2018-07-17T05:55:04.688Z,16.00
2018-07-17T05:57:33.160Z,16.20
2018-07-17T06:00:02.332Z,16.60
2018-07-17T06:02:30.874Z,16.60
2018-07-17T06:04:59.309Z,16.90
2018-07-17T06:07:27.775Z,17.10
2018-07-17T06:09:56.274Z,16.70
2018-07-17T06:12:24.921Z,16.60
2018-07-17T06:14:53.398Z,16.80
2018-07-17T06:17:21.816Z,16.80
2018-07-17T06:19:50.246Z,16.90
2018-07-17T06:22:18.686Z,16.90
2018-07-17T06:27:15.509Z,17.30
2018-07-17T06:29:43.892Z,17.60
2018-07-17T06:32:12.470Z,17.70
2018-07-17T06:34:40.957Z,17.80
2018-07-17T06:37:09.450Z,18.00
2018-07-17T06:39:37.917Z,18.10
2018-07-17T06:42:06.540Z,18.20
2018-07-17T06:44:35.082Z,18.20
2018-07-17T06:49:31.604Z,18.20
2018-07-17T06:52:00.048Z,18.40
2018-07-17T06:54:28.532Z,18.80
2018-07-17T06:56:56.943Z,19.10
2018-07-17T06:59:25.377Z,19.20
2018-07-17T07:01:53.844Z,19.40
2018-07-17T07:04:22.305Z,20.20
2018-07-17T07:06:50.820Z,21.00
2018-07-17T07:09:20.142Z,22.10
2018-07-17T07:11:48.743Z,22.80
2018-07-17T07:14:17.181Z,23.40
2018-07-17T07:16:45.647Z,23.40
2018-07-17T07:19:14.148Z,23.80
2018-07-17T07:21:42.673Z,24.20
2018-07-17T07:24:11.158Z,24.30
2018-07-17T07:26:39.668Z,25.20
2018-07-17T07:29:08.226Z,25.40
2018-07-17T07:31:36.759Z,24.70
2018-07-17T07:34:05.369Z,25.50
2018-07-17T07:36:33.922Z,25.80
2018-07-17T07:39:02.396Z,26.80
2018-07-17T07:41:30.958Z,26.50
2018-07-17T07:43:59.405Z,25.90
2018-07-17T07:46:27.897Z,25.80
2018-07-17T07:48:56.468Z,26.40
2018-07-17T07:51:25.018Z,25.30
2018-07-17T07:53:53.521Z,26.10
2018-07-17T07:56:22.004Z,27.00
2018-07-17T07:58:50.449Z,27.50
2018-07-17T08:01:19.087Z,28.00
2018-07-17T08:03:47.622Z,28.00
2018-07-17T08:06:16.252Z,29.20
2018-07-17T08:08:44.831Z,29.30
2018-07-17T08:11:13.417Z,29.80
2018-07-17T08:13:41.874Z,30.10
2018-07-17T08:16:10.428Z,30.40
2018-07-17T08:18:38.893Z,30.00
2018-07-17T08:21:07.435Z,30.40
2018-07-17T08:23:35.880Z,30.80
2018-07-17T08:28:32.629Z,31.20
2018-07-17T08:31:01.099Z,30.70
2018-07-17T08:33:29.744Z,31.00
2018-07-17T08:35:58.289Z,31.40
2018-07-17T08:38:26.904Z,31.70
2018-07-17T08:40:55.356Z,31.30
2018-07-17T08:43:23.929Z,31.10
2018-07-17T08:45:52.352Z,31.10
2018-07-17T08:48:20.819Z,30.90
2018-07-17T08:50:49.245Z,31.50
2018-07-17T08:53:17.784Z,31.30
2018-07-17T08:55:46.576Z,31.50
2018-07-17T08:58:15.127Z,31.30
2018-07-17T09:03:11.664Z,32.40
2018-07-17T09:05:40.082Z,32.40
2018-07-17T09:08:08.745Z,32.10
2018-07-17T09:10:37.248Z,32.40
2018-07-17T09:13:05.785Z,32.50
2018-07-17T09:15:34.282Z,32.90
2018-07-17T09:18:02.754Z,32.60
2018-07-17T09:20:31.280Z,32.60
2018-07-17T09:22:59.751Z,32.90
2018-07-17T09:25:28.313Z,33.90
2018-07-17T09:27:57.148Z,33.90
2018-07-17T09:30:29.729Z,34.30
2018-07-17T09:32:58.357Z,33.70
2018-07-17T09:37:54.912Z,33.50
2018-07-17T09:42:51.931Z,33.20
2018-07-17T09:45:20.500Z,32.50
2018-07-17T09:47:48.975Z,32.40
2018-07-17T09:50:17.580Z,32.60
2018-07-17T09:52:46.162Z,31.40
2018-07-17T09:55:14.706Z,31.70
2018-07-17T09:57:43.219Z,31.80
2018-07-17T10:00:16.332Z,31.70
2018-07-17T10:02:44.888Z,32.50
2018-07-17T10:05:13.435Z,32.80
2018-07-17T10:07:42.000Z,32.90
2018-07-17T10:10:10.932Z,32.80
2018-07-17T10:12:39.476Z,32.90
2018-07-17T10:15:08.201Z,33.10
2018-07-17T10:17:36.711Z,33.10
2018-07-17T10:20:05.377Z,33.90
2018-07-17T10:22:33.807Z,34.40
2018-07-17T10:25:02.369Z,34.20
2018-07-17T10:27:30.875Z,34.20
2018-07-17T10:29:59.388Z,33.00
2018-07-17T10:32:30.925Z,32.00
2018-07-17T10:34:59.547Z,31.10
2018-07-17T10:37:28.206Z,31.50
2018-07-17T10:39:56.645Z,31.60
2018-07-17T10:42:25.215Z,31.90
2018-07-17T10:44:53.681Z,31.70
2018-07-17T10:47:22.295Z,32.40
2018-07-17T10:49:50.805Z,33.00
2018-07-17T10:52:19.341Z,33.40
2018-07-17T10:54:47.848Z,33.70
2018-07-17T10:57:16.395Z,32.80
2018-07-17T10:59:44.895Z,31.70
2018-07-17T11:02:13.506Z,32.00
2018-07-17T11:04:42.125Z,32.20
2018-07-17T11:07:10.584Z,32.40
2018-07-17T11:09:39.056Z,33.30
2018-07-17T11:12:07.554Z,33.40
2018-07-17T11:14:36.139Z,33.90
2018-07-17T11:17:05.722Z,34.60
2018-07-17T11:19:34.282Z,34.00
2018-07-17T11:22:02.840Z,34.20
2018-07-17T11:24:31.349Z,34.20
2018-07-17T11:26:59.988Z,34.80
2018-07-17T11:29:28.455Z,35.00
2018-07-17T11:31:57.062Z,35.10
2018-07-17T11:34:25.629Z,35.30
2018-07-17T11:36:54.165Z,35.50
2018-07-17T11:41:50.925Z,34.00
2018-07-17T11:44:19.525Z,34.20
2018-07-17T11:46:48.241Z,34.40
2018-07-17T11:49:16.794Z,34.40
2018-07-17T11:51:45.254Z,35.40
2018-07-17T11:54:13.779Z,34.50
2018-07-17T11:56:42.277Z,35.30
2018-07-17T11:59:10.847Z,35.40
2018-07-17T12:01:39.385Z,34.30
2018-07-17T12:04:07.867Z,33.40
2018-07-17T12:06:36.467Z,32.50
2018-07-17T12:09:06.650Z,32.40
2018-07-17T12:11:35.145Z,33.20
2018-07-17T12:14:03.729Z,34.10
2018-07-17T12:16:32.416Z,33.80
2018-07-17T12:19:00.962Z,33.70
2018-07-17T12:21:29.462Z,33.40
2018-07-17T12:23:58.274Z,33.90
2018-07-17T12:28:55.010Z,34.60
2018-07-17T12:31:23.568Z,36.10
2018-07-17T12:33:52.130Z,36.00
2018-07-17T12:36:20.747Z,36.30
2018-07-17T12:38:49.274Z,36.40
2018-07-17T12:41:17.947Z,36.50
2018-07-17T12:46:14.833Z,35.90
2018-07-17T12:48:43.352Z,35.90
2018-07-17T12:53:41.013Z,35.70
2018-07-17T12:56:09.525Z,35.20
2018-07-17T12:58:38.074Z,35.80
2018-07-17T13:01:06.550Z,35.60
2018-07-17T13:03:35.112Z,35.40
2018-07-17T13:06:03.718Z,35.70
2018-07-17T13:08:32.287Z,35.60
2018-07-17T13:11:00.818Z,36.10
2018-07-17T13:13:29.337Z,34.30
2018-07-17T13:15:57.830Z,34.90
2018-07-17T13:18:26.307Z,36.00
2018-07-17T13:20:54.822Z,35.10
2018-07-17T13:23:23.312Z,35.80
2018-07-17T13:25:51.894Z,35.10
2018-07-17T13:28:20.327Z,34.80
2018-07-17T13:30:48.792Z,34.70
2018-07-17T13:33:17.362Z,35.30
2018-07-17T13:38:20.587Z,36.60
2018-07-17T13:40:49.166Z,35.70
2018-07-17T13:43:17.679Z,35.20
2018-07-17T13:45:46.324Z,35.70
2018-07-17T13:48:14.799Z,35.30
2018-07-17T13:50:43.290Z,35.20
2018-07-17T13:53:11.903Z,34.10
2018-07-17T13:55:40.549Z,33.20
2018-07-17T13:58:09.036Z,32.60
2018-07-17T14:00:37.541Z,30.50
2018-07-17T14:03:06.050Z,29.90
2018-07-17T14:05:34.501Z,29.20
2018-07-17T14:08:03.021Z,28.70
2018-07-17T14:10:31.603Z,28.40
2018-07-17T14:13:00.229Z,28.00
2018-07-17T14:15:28.928Z,27.60
2018-07-17T14:17:57.414Z,27.40
2018-07-17T14:20:25.879Z,27.20
2018-07-17T14:22:54.682Z,27.00
2018-07-17T14:25:23.327Z,26.70
2018-07-17T14:27:51.973Z,26.90
2018-07-17T14:30:20.570Z,27.00
2018-07-17T14:32:49.227Z,27.10
2018-07-17T14:35:17.703Z,27.10
2018-07-17T14:37:46.263Z,27.30
2018-07-17T14:45:11.293Z,27.50
2018-07-17T14:47:39.786Z,27.30
2018-07-17T14:50:08.737Z,27.10
2018-07-17T14:52:37.331Z,27.40
2018-07-17T14:55:07.151Z,27.70
2018-07-17T14:57:36.211Z,27.70
2018-07-17T15:00:05.819Z,28.10
2018-07-17T15:02:34.377Z,28.20
2018-07-17T15:05:02.989Z,28.30
2018-07-17T15:07:31.612Z,28.30
2018-07-17T15:10:00.811Z,28.20
2018-07-17T15:12:29.251Z,28.10
2018-07-17T15:14:57.835Z,28.00
2018-07-17T15:17:26.341Z,28.20
2018-07-17T15:19:54.940Z,28.10
2018-07-17T15:22:24.142Z,27.90
2018-07-17T15:24:52.772Z,28.00
2018-07-17T15:27:21.293Z,27.90
2018-07-17T15:29:50.077Z,28.00
2018-07-17T15:32:18.622Z,28.10
2018-07-17T15:34:47.181Z,28.10
2018-07-17T15:37:15.717Z,28.10
2018-07-17T15:39:44.316Z,28.30
2018-07-17T15:42:13.004Z,28.20
2018-07-17T15:44:41.634Z,28.00
2018-07-17T15:47:11.236Z,28.00
2018-07-17T15:49:39.724Z,27.90
2018-07-17T15:52:08.469Z,27.90
2018-07-17T15:54:37.262Z,27.60
2018-07-17T15:57:06.582Z,27.30
2018-07-17T15:59:35.344Z,27.00
2018-07-17T16:02:03.994Z,26.60
2018-07-17T16:04:32.499Z,26.60
2018-07-17T16:07:00.969Z,26.30
2018-07-17T16:09:30.030Z,26.30
2018-07-17T16:11:58.563Z,26.30
2018-07-17T16:14:27.417Z,26.00
2018-07-17T16:16:55.700Z,25.80
2018-07-17T16:19:24.414Z,25.90
2018-07-17T16:21:54.024Z,25.80
2018-07-17T16:24:22.644Z,25.90
2018-07-17T16:26:51.231Z,26.00
2018-07-17T16:29:20.147Z,26.20
2018-07-17T16:31:48.769Z,26.30
2018-07-17T16:34:18.317Z,26.40
2018-07-17T16:36:46.946Z,26.20
2018-07-17T16:39:15.505Z,25.90
2018-07-17T16:41:44.287Z,26.00
2018-07-17T16:44:12.956Z,26.10
2018-07-17T16:46:41.833Z,26.00
2018-07-17T16:49:10.947Z,26.00
2018-07-17T16:51:39.712Z,25.90
2018-07-17T16:54:08.464Z,25.90
2018-07-17T16:56:37.220Z,25.80
2018-07-17T16:59:05.852Z,25.70
2018-07-17T17:01:34.745Z,25.40
2018-07-17T17:04:03.312Z,25.40
2018-07-17T17:09:00.307Z,25.20
2018-07-17T17:11:28.859Z,25.10
2018-07-17T17:14:00.770Z,25.20
2018-07-17T17:16:29.283Z,25.20
2018-07-17T17:18:58.234Z,25.40
2018-07-17T17:21:26.956Z,25.50
2018-07-17T17:23:55.593Z,25.60
2018-07-17T17:26:24.097Z,25.70
2018-07-17T17:28:53.548Z,25.70
2018-07-17T17:31:22.211Z,25.70
2018-07-17T17:33:50.858Z,25.80
2018-07-17T17:36:19.708Z,25.80
2018-07-17T17:38:48.166Z,25.80
2018-07-17T17:41:16.771Z,25.80
2018-07-17T17:43:45.407Z,25.70
2018-07-17T17:46:14.303Z,25.70
2018-07-17T17:48:42.874Z,25.60
2018-07-17T17:51:11.522Z,25.50
2018-07-17T17:53:40.119Z,25.40
2018-07-17T17:56:08.723Z,25.30
2018-07-17T17:58:37.479Z,25.20
2018-07-17T18:03:34.779Z,25.00
2018-07-17T18:06:03.553Z,25.00
2018-07-17T18:08:32.582Z,24.90
2018-07-17T18:11:01.505Z,24.80
2018-07-17T18:13:30.546Z,24.60
2018-07-17T18:15:59.381Z,24.40
2018-07-17T18:18:28.117Z,24.20
2018-07-17T18:20:56.685Z,24.10
2018-07-17T18:23:25.307Z,24.00
2018-07-17T18:25:54.168Z,23.90
2018-07-17T18:28:22.755Z,23.80
2018-07-17T18:30:51.446Z,23.70
2018-07-17T18:33:20.261Z,23.70
2018-07-17T18:35:48.860Z,23.60
2018-07-17T18:38:17.483Z,23.60
2018-07-17T18:40:46.475Z,23.50
2018-07-17T18:43:15.316Z,23.40
2018-07-17T18:45:44.881Z,23.30
2018-07-17T18:48:13.610Z,23.30
2018-07-17T18:50:42.525Z,23.20
2018-07-17T18:53:11.199Z,23.10
2018-07-17T18:55:40.107Z,23.00
2018-07-17T18:58:09.301Z,23.00
2018-07-17T19:00:38.103Z,22.90
2018-07-17T19:03:07.885Z,22.80
2018-07-17T19:05:37.103Z,22.60
2018-07-17T19:10:34.705Z,22.40
2018-07-17T19:13:03.367Z,22.30
2018-07-17T19:15:33.152Z,22.20
2018-07-17T19:18:02.643Z,22.10
2018-07-17T19:20:31.494Z,22.00
2018-07-17T19:23:00.869Z,21.90
2018-07-17T19:25:29.830Z,21.90
2018-07-17T19:27:59.280Z,21.80
2018-07-17T19:30:28.192Z,21.70
2018-07-17T19:32:57.483Z,21.70
2018-07-17T19:35:27.155Z,21.60
2018-07-17T19:37:56.204Z,21.60
2018-07-17T19:40:25.223Z,21.60
2018-07-17T19:42:56.344Z,21.50
2018-07-17T19:45:25.467Z,21.50
2018-07-17T19:47:54.387Z,21.40
2018-07-17T19:50:23.830Z,21.40
2018-07-17T19:52:53.038Z,21.30
2018-07-17T19:55:21.816Z,21.30
2018-07-17T19:57:51.005Z,21.20
2018-07-17T20:00:19.908Z,21.20
2018-07-17T20:02:48.844Z,21.10
2018-07-17T20:05:19.398Z,21.00
2018-07-17T20:07:48.275Z,20.90
2018-07-17T20:10:17.279Z,20.80
2018-07-17T20:12:46.196Z,20.80
2018-07-17T20:15:15.399Z,20.70
2018-07-17T20:17:44.433Z,20.60
2018-07-17T20:20:13.327Z,20.60
2018-07-17T20:22:42.438Z,20.50
2018-07-17T20:25:11.188Z,20.40
2018-07-17T20:27:40.073Z,20.40
2018-07-17T20:30:08.795Z,20.40
2018-07-17T20:32:37.573Z,20.30
2018-07-17T20:35:06.650Z,20.20
2018-07-17T20:37:35.255Z,20.20
2018-07-17T20:42:32.213Z,20.10
2018-07-17T20:45:00.811Z,20.00
2018-07-17T20:47:29.424Z,20.00
2018-07-17T20:49:58.137Z,19.90
2018-07-17T20:52:26.897Z,19.80
2018-07-17T20:55:02.074Z,19.80
2018-07-17T20:57:30.770Z,19.80
2018-07-17T20:59:59.649Z,19.60
2018-07-17T21:02:28.351Z,19.60
2018-07-17T21:04:57.301Z,19.60
2018-07-17T21:07:25.984Z,19.50
2018-07-17T21:09:54.512Z,19.50
2018-07-17T21:12:23.128Z,19.50
2018-07-17T21:14:51.753Z,19.50
2018-07-17T21:17:20.523Z,19.50
2018-07-17T21:19:49.127Z,19.50
2018-07-17T21:22:17.902Z,19.40
2018-07-17T21:24:46.435Z,19.40
2018-07-17T21:27:15.432Z,19.40
2018-07-17T21:29:43.945Z,19.40
2018-07-17T21:32:12.446Z,19.40
2018-07-17T21:34:40.981Z,19.30
2018-07-17T21:37:09.524Z,19.20
2018-07-17T21:39:38.084Z,19.30
2018-07-17T21:42:06.935Z,19.30
2018-07-17T21:44:35.507Z,19.20
2018-07-17T21:47:04.084Z,19.20
2018-07-17T21:52:02.084Z,19.10
2018-07-17T21:54:30.518Z,19.20
2018-07-17T21:56:59.106Z,19.10
2018-07-17T21:59:27.638Z,19.00
2018-07-17T22:01:56.139Z,19.00
2018-07-17T22:04:24.650Z,18.90
2018-07-17T22:06:53.121Z,18.90
2018-07-17T22:09:21.643Z,18.90
2018-07-17T22:11:50.114Z,18.80
2018-07-17T22:14:18.565Z,18.80
2018-07-17T22:16:47.140Z,18.80
2018-07-17T22:19:15.624Z,18.80
2018-07-17T22:21:44.144Z,18.80
2018-07-17T22:24:12.660Z,18.70
2018-07-17T22:26:41.226Z,18.70
2018-07-17T22:29:09.756Z,18.70
2018-07-17T22:31:38.281Z,18.70
2018-07-17T22:34:06.809Z,18.70
2018-07-17T22:36:35.292Z,18.60
2018-07-17T22:39:04.807Z,18.60
2018-07-17T22:41:33.236Z,18.60
2018-07-17T22:44:01.689Z,18.50
2018-07-17T22:46:30.114Z,18.50
2018-07-17T22:48:58.594Z,18.50
2018-07-17T22:51:27.081Z,18.40
2018-07-17T22:53:55.594Z,18.40
2018-07-17T22:56:24.070Z,18.40
2018-07-17T22:58:52.554Z,18.30
2018-07-17T23:01:27.451Z,18.30
2018-07-17T23:03:55.998Z,18.20
2018-07-17T23:06:24.450Z,18.20
2018-07-17T23:08:53.001Z,18.20
2018-07-17T23:11:21.948Z,18.20
2018-07-17T23:13:51.348Z,18.20
2018-07-17T23:16:20.065Z,18.20
2018-07-17T23:18:48.656Z,18.20
2018-07-17T23:21:17.583Z,18.20
2018-07-17T23:23:46.201Z,18.10
2018-07-17T23:26:14.657Z,18.10
2018-07-17T23:28:43.705Z,18.10
2018-07-17T23:31:12.122Z,18.10
2018-07-17T23:33:40.978Z,18.10
2018-07-17T23:36:09.453Z,18.10
2018-07-17T23:38:37.948Z,18.10
2018-07-17T23:41:06.547Z,18.10
2018-07-17T23:43:35.013Z,18.10
2018-07-17T23:46:03.552Z,18.10
2018-07-17T23:51:00.264Z,18.10
2018-07-17T23:53:28.776Z,18.10
2018-07-17T23:55:57.220Z,18.10
2018-07-17T23:58:25.703Z,18.10
